Terminal Aerodrome Forecast
Issued by NWS

Home | Current Version | Previous Version | Text Only | Print | Product List | Glossary On
Versions: 1 2 3 4 5 6 7 8 9 10 11 12 13 14 15 16 17 18
000
FTUS44 KLZK 020500
TAFADF
TAF
KADF 020539Z 0206/0306 00000KT 6SM BR VCSH SCT080
      TEMPO 0206/0209 4SM -SHRA BR OVC080
     FM020900 00000KT 2SM BR SCT250
     FM021300 06006KT P6SM BKN040
     FM030000 07003KT P6SM SCT250=

USA.gov is the U.S. government's official web portal to all federal, state and local government web resources and services.